sensor_id;sensor_type;location;lat;lon;timestamp;P1;durP1;ratioP1;P2;durP2;ratioP2
76202;SDS011;64985;46.364;17.008;2023-04-06T00:00:40;18.67;;;8.82;;
76202;SDS011;64985;46.364;17.008;2023-04-06T00:03:43;15.80;;;8.60;;
76202;SDS011;64985;46.364;17.008;2023-04-06T00:06:47;15.18;;;8.10;;
76202;SDS011;64985;46.364;17.008;2023-04-06T00:09:50;18.23;;;7.90;;
76202;SDS011;64985;46.364;17.008;2023-04-06T00:12:54;15.77;;;8.23;;
76202;SDS011;64985;46.364;17.008;2023-04-06T00:15:59;19.80;;;9.05;;
76202;SDS011;64985;46.364;17.008;2023-04-06T00:19:02;17.70;;;9.07;;
76202;SDS011;64985;46.364;17.008;2023-04-06T00:22:05;19.30;;;9.10;;
76202;SDS011;64985;46.364;17.008;2023-04-06T00:25:09;20.83;;;9.05;;
76202;SDS011;64985;46.364;17.008;2023-04-06T00:28:13;23.23;;;10.18;;
76202;SDS011;64985;46.364;17.008;2023-04-06T00:31:16;21.35;;;10.10;;
76202;SDS011;64985;46.364;17.008;2023-04-06T00:34:19;22.75;;;10.50;;
76202;SDS011;64985;46.364;17.008;2023-04-06T00:37:22;19.00;;;9.45;;
76202;SDS011;64985;46.364;17.008;2023-04-06T00:40:26;17.80;;;8.98;;
76202;SDS011;64985;46.364;17.008;2023-04-06T00:43:31;19.23;;;9.35;;
76202;SDS011;64985;46.364;17.008;2023-04-06T00:46:34;20.92;;;8.90;;
76202;SDS011;64985;46.364;17.008;2023-04-06T00:49:37;18.85;;;9.13;;
76202;SDS011;64985;46.364;17.008;2023-04-06T00:52:40;16.52;;;8.32;;
76202;SDS011;64985;46.364;17.008;2023-04-06T00:55:43;19.52;;;8.73;;
76202;SDS011;64985;46.364;17.008;2023-04-06T00:58:46;21.00;;;9.68;;
76202;SDS011;64985;46.364;17.008;2023-04-06T01:01:49;25.25;;;11.00;;
76202;SDS011;64985;46.364;17.008;2023-04-06T01:04:52;25.08;;;10.32;;
76202;SDS011;64985;46.364;17.008;2023-04-06T01:07:57;22.30;;;9.85;;
76202;SDS011;64985;46.364;17.008;2023-04-06T01:11:00;20.70;;;9.77;;
76202;SDS011;64985;46.364;17.008;2023-04-06T01:14:03;20.23;;;9.23;;
76202;SDS011;64985;46.364;17.008;2023-04-06T01:17:06;22.85;;;9.73;;
76202;SDS011;64985;46.364;17.008;2023-04-06T01:20:11;20.63;;;9.93;;
76202;SDS011;64985;46.364;17.008;2023-04-06T01:23:15;18.65;;;9.50;;
76202;SDS011;64985;46.364;17.008;2023-04-06T01:26:18;23.10;;;9.43;;
76202;SDS011;64985;46.364;17.008;2023-04-06T01:29:21;19.35;;;9.40;;
76202;SDS011;64985;46.364;17.008;2023-04-06T01:32:25;21.17;;;9.52;;
76202;SDS011;64985;46.364;17.008;2023-04-06T01:35:28;22.35;;;8.75;;
76202;SDS011;64985;46.364;17.008;2023-04-06T01:38:32;16.50;;;8.30;;
76202;SDS011;64985;46.364;17.008;2023-04-06T01:41:35;16.70;;;8.20;;
76202;SDS011;64985;46.364;17.008;2023-04-06T01:44:38;18.95;;;8.85;;
76202;SDS011;64985;46.364;17.008;2023-04-06T01:47:41;23.00;;;10.63;;
76202;SDS011;64985;46.364;17.008;2023-04-06T01:50:44;22.45;;;10.15;;
76202;SDS011;64985;46.364;17.008;2023-04-06T01:53:48;31.50;;;13.43;;
76202;SDS011;64985;46.364;17.008;2023-04-06T01:56:51;32.50;;;13.48;;
76202;SDS011;64985;46.364;17.008;2023-04-06T01:59:55;35.92;;;14.93;;
76202;SDS011;64985;46.364;17.008;2023-04-06T02:02:58;37.78;;;14.98;;
76202;SDS011;64985;46.364;17.008;2023-04-06T02:06:01;30.00;;;13.55;;
76202;SDS011;64985;46.364;17.008;2023-04-06T02:09:06;23.45;;;11.07;;
76202;SDS011;64985;46.364;17.008;2023-04-06T02:12:09;19.88;;;9.52;;
76202;SDS011;64985;46.364;17.008;2023-04-06T02:15:12;16.95;;;8.60;;
76202;SDS011;64985;46.364;17.008;2023-04-06T02:18:15;19.50;;;9.38;;
76202;SDS011;64985;46.364;17.008;2023-04-06T02:21:20;17.67;;;8.77;;
76202;SDS011;64985;46.364;17.008;2023-04-06T02:24:23;16.80;;;8.07;;
76202;SDS011;64985;46.364;17.008;2023-04-06T02:27:26;17.98;;;9.88;;
76202;SDS011;64985;46.364;17.008;2023-04-06T02:30:29;21.13;;;11.38;;
76202;SDS011;64985;46.364;17.008;2023-04-06T02:33:34;19.63;;;10.35;;
76202;SDS011;64985;46.364;17.008;2023-04-06T02:36:37;17.95;;;7.97;;
76202;SDS011;64985;46.364;17.008;2023-04-06T02:39:41;19.52;;;8.10;;
76202;SDS011;64985;46.364;17.008;2023-04-06T02:42:44;18.98;;;8.68;;
76202;SDS011;64985;46.364;17.008;2023-04-06T02:45:47;27.20;;;9.02;;
76202;SDS011;64985;46.364;17.008;2023-04-06T02:48:51;24.30;;;8.20;;
76202;SDS011;64985;46.364;17.008;2023-04-06T02:51:54;21.17;;;8.27;;
76202;SDS011;64985;46.364;17.008;2023-04-06T02:54:57;13.65;;;6.90;;
76202;SDS011;64985;46.364;17.008;2023-04-06T02:58:00;14.93;;;7.57;;
76202;SDS011;64985;46.364;17.008;2023-04-06T03:01:03;14.88;;;7.95;;
76202;SDS011;64985;46.364;17.008;2023-04-06T03:04:06;16.40;;;8.07;;
76202;SDS011;64985;46.364;17.008;2023-04-06T03:07:09;14.15;;;7.68;;
76202;SDS011;64985;46.364;17.008;2023-04-06T03:10:13;15.82;;;8.23;;
76202;SDS011;64985;46.364;17.008;2023-04-06T03:13:15;16.45;;;8.05;;
76202;SDS011;64985;46.364;17.008;2023-04-06T03:16:19;14.75;;;7.78;;
76202;SDS011;64985;46.364;17.008;2023-04-06T03:19:23;18.67;;;8.68;;
76202;SDS011;64985;46.364;17.008;2023-04-06T03:22:27;14.90;;;8.20;;
76202;SDS011;64985;46.364;17.008;2023-04-06T03:25:30;16.90;;;8.40;;
76202;SDS011;64985;46.364;17.008;2023-04-06T03:28:34;15.32;;;7.47;;
76202;SDS011;64985;46.364;17.008;2023-04-06T03:31:37;17.35;;;8.73;;
76202;SDS011;64985;46.364;17.008;2023-04-06T03:34:40;16.83;;;8.75;;
76202;SDS011;64985;46.364;17.008;2023-04-06T03:37:43;15.27;;;7.55;;
76202;SDS011;64985;46.364;17.008;2023-04-06T03:40:46;17.98;;;8.23;;
76202;SDS011;64985;46.364;17.008;2023-04-06T03:43:50;18.20;;;8.48;;
76202;SDS011;64985;46.364;17.008;2023-04-06T03:47:01;18.45;;;7.93;;
76202;SDS011;64985;46.364;17.008;2023-04-06T03:50:04;17.13;;;7.85;;
76202;SDS011;64985;46.364;17.008;2023-04-06T03:53:08;17.83;;;7.72;;
76202;SDS011;64985;46.364;17.008;2023-04-06T03:56:11;13.43;;;7.30;;
76202;SDS011;64985;46.364;17.008;2023-04-06T03:59:14;16.20;;;8.40;;
76202;SDS011;64985;46.364;17.008;2023-04-06T04:02:17;18.20;;;9.18;;
76202;SDS011;64985;46.364;17.008;2023-04-06T04:05:21;20.75;;;9.70;;
76202;SDS011;64985;46.364;17.008;2023-04-06T04:08:27;19.40;;;8.85;;
76202;SDS011;64985;46.364;17.008;2023-04-06T04:11:30;15.15;;;7.55;;
76202;SDS011;64985;46.364;17.008;2023-04-06T04:14:33;15.57;;;8.00;;
76202;SDS011;64985;46.364;17.008;2023-04-06T04:17:36;15.75;;;8.75;;
76202;SDS011;64985;46.364;17.008;2023-04-06T04:20:40;19.75;;;7.75;;
76202;SDS011;64985;46.364;17.008;2023-04-06T04:23:43;17.50;;;8.18;;
76202;SDS011;64985;46.364;17.008;2023-04-06T04:26:46;21.33;;;8.43;;
76202;SDS011;64985;46.364;17.008;2023-04-06T04:29:49;16.25;;;8.13;;
76202;SDS011;64985;46.364;17.008;2023-04-06T04:32:53;17.75;;;8.70;;
76202;SDS011;64985;46.364;17.008;2023-04-06T04:35:57;17.65;;;8.65;;
76202;SDS011;64985;46.364;17.008;2023-04-06T04:39:00;19.20;;;8.98;;
76202;SDS011;64985;46.364;17.008;2023-04-06T04:42:03;18.27;;;9.02;;
76202;SDS011;64985;46.364;17.008;2023-04-06T04:45:06;21.95;;;10.02;;
76202;SDS011;64985;46.364;17.008;2023-04-06T04:48:10;18.05;;;9.27;;
76202;SDS011;64985;46.364;17.008;2023-04-06T04:51:13;20.00;;;9.73;;
76202;SDS011;64985;46.364;17.008;2023-04-06T04:54:16;21.90;;;9.73;;
76202;SDS011;64985;46.364;17.008;2023-04-06T04:57:20;19.25;;;9.70;;
76202;SDS011;64985;46.364;17.008;2023-04-06T05:00:23;20.85;;;10.35;;
76202;SDS011;64985;46.364;17.008;2023-04-06T05:03:26;23.23;;;10.27;;
76202;SDS011;64985;46.364;17.008;2023-04-06T05:06:30;19.05;;;10.15;;
76202;SDS011;64985;46.364;17.008;2023-04-06T05:09:33;22.02;;;11.07;;
76202;SDS011;64985;46.364;17.008;2023-04-06T05:12:37;20.35;;;10.95;;
76202;SDS011;64985;46.364;17.008;2023-04-06T05:15:40;23.30;;;10.77;;
76202;SDS011;64985;46.364;17.008;2023-04-06T05:18:44;19.48;;;10.88;;
76202;SDS011;64985;46.364;17.008;2023-04-06T05:21:47;23.15;;;11.38;;
76202;SDS011;64985;46.364;17.008;2023-04-06T05:24:50;24.60;;;12.13;;
76202;SDS011;64985;46.364;17.008;2023-04-06T05:27:53;22.73;;;11.45;;
76202;SDS011;64985;46.364;17.008;2023-04-06T05:30:57;23.40;;;11.75;;
76202;SDS011;64985;46.364;17.008;2023-04-06T05:34:00;26.33;;;12.05;;
76202;SDS011;64985;46.364;17.008;2023-04-06T05:37:03;21.73;;;11.05;;
76202;SDS011;64985;46.364;17.008;2023-04-06T05:40:07;20.15;;;10.90;;
76202;SDS011;64985;46.364;17.008;2023-04-06T05:43:10;19.40;;;10.70;;
76202;SDS011;64985;46.364;17.008;2023-04-06T05:46:13;22.55;;;10.80;;
76202;SDS011;64985;46.364;17.008;2023-04-06T05:49:16;19.90;;;11.05;;
76202;SDS011;64985;46.364;17.008;2023-04-06T05:52:19;25.48;;;11.50;;
76202;SDS011;64985;46.364;17.008;2023-04-06T05:55:22;19.85;;;9.98;;
76202;SDS011;64985;46.364;17.008;2023-04-06T05:58:25;20.65;;;9.93;;
76202;SDS011;64985;46.364;17.008;2023-04-06T06:01:28;19.95;;;10.45;;
76202;SDS011;64985;46.364;17.008;2023-04-06T06:04:32;21.00;;;11.57;;
76202;SDS011;64985;46.364;17.008;2023-04-06T06:07:35;20.75;;;11.90;;
76202;SDS011;64985;46.364;17.008;2023-04-06T06:10:39;25.98;;;12.75;;
76202;SDS011;64985;46.364;17.008;2023-04-06T06:13:42;28.92;;;12.20;;
76202;SDS011;64985;46.364;17.008;2023-04-06T06:16:46;33.63;;;14.18;;
76202;SDS011;64985;46.364;17.008;2023-04-06T06:19:49;27.30;;;13.40;;
76202;SDS011;64985;46.364;17.008;2023-04-06T06:22:52;28.92;;;16.23;;
76202;SDS011;64985;46.364;17.008;2023-04-06T06:25:56;22.63;;;13.38;;
76202;SDS011;64985;46.364;17.008;2023-04-06T06:29:00;16.23;;;10.02;;
76202;SDS011;64985;46.364;17.008;2023-04-06T06:32:04;17.63;;;9.10;;
76202;SDS011;64985;46.364;17.008;2023-04-06T06:35:07;16.25;;;9.00;;
76202;SDS011;64985;46.364;17.008;2023-04-06T06:38:10;17.92;;;11.23;;
76202;SDS011;64985;46.364;17.008;2023-04-06T06:41:13;15.73;;;8.50;;
76202;SDS011;64985;46.364;17.008;2023-04-06T06:44:17;18.52;;;9.75;;
76202;SDS011;64985;46.364;17.008;2023-04-06T06:47:20;20.13;;;11.48;;
76202;SDS011;64985;46.364;17.008;2023-04-06T06:50:23;16.30;;;11.20;;
76202;SDS011;64985;46.364;17.008;2023-04-06T06:53:27;21.00;;;12.43;;
76202;SDS011;64985;46.364;17.008;2023-04-06T06:56:30;22.13;;;10.75;;
76202;SDS011;64985;46.364;17.008;2023-04-06T06:59:33;15.40;;;8.20;;
76202;SDS011;64985;46.364;17.008;2023-04-06T07:02:36;15.73;;;9.50;;
76202;SDS011;64985;46.364;17.008;2023-04-06T07:05:45;20.65;;;9.68;;
76202;SDS011;64985;46.364;17.008;2023-04-06T07:08:52;12.48;;;7.43;;
76202;SDS011;64985;46.364;17.008;2023-04-06T07:11:55;17.42;;;7.80;;
76202;SDS011;64985;46.364;17.008;2023-04-06T07:14:59;15.27;;;8.90;;
76202;SDS011;64985;46.364;17.008;2023-04-06T07:18:03;15.68;;;7.50;;
76202;SDS011;64985;46.364;17.008;2023-04-06T07:21:06;12.93;;;7.57;;
76202;SDS011;64985;46.364;17.008;2023-04-06T07:24:09;13.25;;;7.60;;
76202;SDS011;64985;46.364;17.008;2023-04-06T07:27:12;26.88;;;11.85;;
76202;SDS011;64985;46.364;17.008;2023-04-06T07:30:18;11.20;;;7.53;;
76202;SDS011;64985;46.364;17.008;2023-04-06T07:33:22;11.40;;;7.15;;
76202;SDS011;64985;46.364;17.008;2023-04-06T07:36:25;12.80;;;7.53;;
76202;SDS011;64985;46.364;17.008;2023-04-06T07:39:28;24.23;;;9.70;;
76202;SDS011;64985;46.364;17.008;2023-04-06T07:42:32;12.95;;;7.93;;
76202;SDS011;64985;46.364;17.008;2023-04-06T07:45:35;19.30;;;8.82;;
76202;SDS011;64985;46.364;17.008;2023-04-06T07:48:38;12.98;;;7.28;;
76202;SDS011;64985;46.364;17.008;2023-04-06T07:51:41;13.70;;;8.55;;
76202;SDS011;64985;46.364;17.008;2023-04-06T07:54:45;16.90;;;10.02;;
76202;SDS011;64985;46.364;17.008;2023-04-06T07:57:48;11.10;;;7.93;;
76202;SDS011;64985;46.364;17.008;2023-04-06T08:00:52;12.70;;;8.90;;
76202;SDS011;64985;46.364;17.008;2023-04-06T08:03:56;10.40;;;7.50;;
76202;SDS011;64985;46.364;17.008;2023-04-06T08:07:00;11.15;;;7.68;;
76202;SDS011;64985;46.364;17.008;2023-04-06T08:10:03;16.15;;;7.45;;
76202;SDS011;64985;46.364;17.008;2023-04-06T08:13:07;10.02;;;7.10;;
76202;SDS011;64985;46.364;17.008;2023-04-06T08:16:10;11.85;;;7.47;;
76202;SDS011;64985;46.364;17.008;2023-04-06T08:19:14;10.45;;;7.43;;
76202;SDS011;64985;46.364;17.008;2023-04-06T08:22:19;13.77;;;7.82;;
76202;SDS011;64985;46.364;17.008;2023-04-06T08:25:22;11.52;;;6.72;;
76202;SDS011;64985;46.364;17.008;2023-04-06T08:28:25;11.32;;;7.43;;
76202;SDS011;64985;46.364;17.008;2023-04-06T08:31:28;10.00;;;6.90;;
76202;SDS011;64985;46.364;17.008;2023-04-06T08:34:32;8.48;;;6.18;;
76202;SDS011;64985;46.364;17.008;2023-04-06T08:37:36;9.85;;;6.47;;
76202;SDS011;64985;46.364;17.008;2023-04-06T08:40:40;9.98;;;6.47;;
76202;SDS011;64985;46.364;17.008;2023-04-06T08:43:49;8.38;;;6.28;;
76202;SDS011;64985;46.364;17.008;2023-04-06T08:47:00;9.23;;;6.10;;
76202;SDS011;64985;46.364;17.008;2023-04-06T08:50:04;9.68;;;6.18;;
76202;SDS011;64985;46.364;17.008;2023-04-06T08:53:09;11.60;;;7.55;;
76202;SDS011;64985;46.364;17.008;2023-04-06T08:56:14;14.38;;;8.32;;
76202;SDS011;64985;46.364;17.008;2023-04-06T08:59:18;11.63;;;7.65;;
76202;SDS011;64985;46.364;17.008;2023-04-06T09:02:21;9.60;;;6.40;;
76202;SDS011;64985;46.364;17.008;2023-04-06T09:05:25;16.58;;;7.70;;
76202;SDS011;64985;46.364;17.008;2023-04-06T09:08:28;15.40;;;8.85;;
76202;SDS011;64985;46.364;17.008;2023-04-06T09:11:50;14.20;;;10.18;;
76202;SDS011;64985;46.364;17.008;2023-04-06T09:14:55;14.07;;;7.88;;
76202;SDS011;64985;46.364;17.008;2023-04-06T09:17:59;15.35;;;9.48;;
76202;SDS011;64985;46.364;17.008;2023-04-06T09:21:03;10.05;;;6.18;;
76202;SDS011;64985;46.364;17.008;2023-04-06T09:24:07;11.70;;;7.30;;
76202;SDS011;64985;46.364;17.008;2023-04-06T09:27:12;11.68;;;7.40;;
76202;SDS011;64985;46.364;17.008;2023-04-06T09:30:15;8.55;;;6.40;;
76202;SDS011;64985;46.364;17.008;2023-04-06T09:33:23;10.40;;;6.05;;
76202;SDS011;64985;46.364;17.008;2023-04-06T09:36:36;12.07;;;7.43;;
76202;SDS011;64985;46.364;17.008;2023-04-06T09:39:44;10.30;;;6.00;;
76202;SDS011;64985;46.364;17.008;2023-04-06T09:42:49;7.18;;;5.25;;
76202;SDS011;64985;46.364;17.008;2023-04-06T09:45:55;10.13;;;6.25;;
76202;SDS011;64985;46.364;17.008;2023-04-06T09:48:59;11.10;;;5.78;;
76202;SDS011;64985;46.364;17.008;2023-04-06T09:52:05;8.02;;;5.82;;
76202;SDS011;64985;46.364;17.008;2023-04-06T09:55:11;10.63;;;6.05;;
76202;SDS011;64985;46.364;17.008;2023-04-06T09:58:20;9.18;;;5.50;;
76202;SDS011;64985;46.364;17.008;2023-04-06T10:01:28;7.68;;;5.60;;
76202;SDS011;64985;46.364;17.008;2023-04-06T10:04:45;8.23;;;5.40;;
76202;SDS011;64985;46.364;17.008;2023-04-06T10:07:59;8.02;;;5.45;;
76202;SDS011;64985;46.364;17.008;2023-04-06T10:11:07;18.67;;;9.95;;
76202;SDS011;64985;46.364;17.008;2023-04-06T10:14:12;10.10;;;7.50;;
76202;SDS011;64985;46.364;17.008;2023-04-06T10:17:16;10.68;;;7.40;;
76202;SDS011;64985;46.364;17.008;2023-04-06T10:23:48;11.73;;;7.22;;
76202;SDS011;64985;46.364;17.008;2023-04-06T10:26:57;10.95;;;5.00;;
76202;SDS011;64985;46.364;17.008;2023-04-06T10:30:04;9.30;;;5.85;;
76202;SDS011;64985;46.364;17.008;2023-04-06T10:33:16;8.48;;;5.80;;
76202;SDS011;64985;46.364;17.008;2023-04-06T10:36:24;12.25;;;6.40;;
76202;SDS011;64985;46.364;17.008;2023-04-06T10:39:29;10.80;;;5.78;;
76202;SDS011;64985;46.364;17.008;2023-04-06T10:42:38;8.27;;;5.50;;
76202;SDS011;64985;46.364;17.008;2023-04-06T10:45:41;9.98;;;6.15;;
76202;SDS011;64985;46.364;17.008;2023-04-06T10:48:45;7.75;;;5.40;;
76202;SDS011;64985;46.364;17.008;2023-04-06T10:51:53;6.93;;;5.13;;
76202;SDS011;64985;46.364;17.008;2023-04-06T10:54:57;10.57;;;6.57;;
76202;SDS011;64985;46.364;17.008;2023-04-06T10:58:01;9.05;;;6.20;;
76202;SDS011;64985;46.364;17.008;2023-04-06T11:01:08;7.78;;;5.45;;
76202;SDS011;64985;46.364;17.008;2023-04-06T11:04:17;7.32;;;5.30;;
76202;SDS011;64985;46.364;17.008;2023-04-06T11:07:24;11.00;;;7.57;;
76202;SDS011;64985;46.364;17.008;2023-04-06T11:10:29;9.02;;;5.97;;
76202;SDS011;64985;46.364;17.008;2023-04-06T11:13:42;8.60;;;5.40;;
76202;SDS011;64985;46.364;17.008;2023-04-06T11:16:55;8.30;;;5.20;;
76202;SDS011;64985;46.364;17.008;2023-04-06T11:19:58;10.68;;;5.80;;
76202;SDS011;64985;46.364;17.008;2023-04-06T11:23:02;9.38;;;6.18;;
76202;SDS011;64985;46.364;17.008;2023-04-06T11:26:09;10.52;;;5.70;;
76202;SDS011;64985;46.364;17.008;2023-04-06T11:29:17;7.87;;;5.63;;
76202;SDS011;64985;46.364;17.008;2023-04-06T11:32:22;7.40;;;5.32;;
76202;SDS011;64985;46.364;17.008;2023-04-06T11:35:26;7.15;;;4.90;;
76202;SDS011;64985;46.364;17.008;2023-04-06T11:38:29;13.27;;;8.20;;
76202;SDS011;64985;46.364;17.008;2023-04-06T11:41:33;8.10;;;4.88;;
76202;SDS011;64985;46.364;17.008;2023-04-06T11:44:40;15.65;;;5.90;;
76202;SDS011;64985;46.364;17.008;2023-04-06T11:47:57;5.95;;;4.75;;
76202;SDS011;64985;46.364;17.008;2023-04-06T11:51:02;8.60;;;5.40;;
76202;SDS011;64985;46.364;17.008;2023-04-06T11:54:07;26.45;;;16.75;;
76202;SDS011;64985;46.364;17.008;2023-04-06T11:57:10;13.48;;;8.55;;
76202;SDS011;64985;46.364;17.008;2023-04-06T12:00:13;8.32;;;5.32;;
76202;SDS011;64985;46.364;17.008;2023-04-06T12:03:17;7.53;;;5.60;;
76202;SDS011;64985;46.364;17.008;2023-04-06T12:06:20;9.65;;;6.22;;
76202;SDS011;64985;46.364;17.008;2023-04-06T12:09:24;10.88;;;6.90;;
76202;SDS011;64985;46.364;17.008;2023-04-06T12:12:27;10.85;;;7.65;;
76202;SDS011;64985;46.364;17.008;2023-04-06T12:15:31;9.80;;;6.45;;
76202;SDS011;64985;46.364;17.008;2023-04-06T12:18:34;10.60;;;8.07;;
76202;SDS011;64985;46.364;17.008;2023-04-06T12:21:37;10.57;;;6.00;;
76202;SDS011;64985;46.364;17.008;2023-04-06T12:24:40;6.45;;;5.00;;
76202;SDS011;64985;46.364;17.008;2023-04-06T12:27:43;21.58;;;13.50;;
76202;SDS011;64985;46.364;17.008;2023-04-06T12:30:48;12.75;;;7.78;;
76202;SDS011;64985;46.364;17.008;2023-04-06T12:33:51;9.32;;;5.50;;
76202;SDS011;64985;46.364;17.008;2023-04-06T12:36:57;8.52;;;6.35;;
76202;SDS011;64985;46.364;17.008;2023-04-06T12:40:01;8.70;;;5.85;;
76202;SDS011;64985;46.364;17.008;2023-04-06T12:43:05;7.63;;;5.20;;
76202;SDS011;64985;46.364;17.008;2023-04-06T12:46:08;9.30;;;6.47;;
76202;SDS011;64985;46.364;17.008;2023-04-06T12:49:12;12.70;;;4.82;;
76202;SDS011;64985;46.364;17.008;2023-04-06T12:52:33;8.18;;;4.53;;
76202;SDS011;64985;46.364;17.008;2023-04-06T12:55:37;6.90;;;5.15;;
76202;SDS011;64985;46.364;17.008;2023-04-06T12:58:40;8.32;;;4.80;;
76202;SDS011;64985;46.364;17.008;2023-04-06T13:01:44;9.20;;;5.28;;
76202;SDS011;64985;46.364;17.008;2023-04-06T13:04:51;6.47;;;4.63;;
76202;SDS011;64985;46.364;17.008;2023-04-06T13:07:53;9.75;;;5.78;;
76202;SDS011;64985;46.364;17.008;2023-04-06T13:10:57;6.53;;;4.40;;
76202;SDS011;64985;46.364;17.008;2023-04-06T13:14:00;8.80;;;5.93;;
76202;SDS011;64985;46.364;17.008;2023-04-06T13:17:03;6.93;;;5.53;;
76202;SDS011;64985;46.364;17.008;2023-04-06T13:20:07;14.43;;;6.55;;
76202;SDS011;64985;46.364;17.008;2023-04-06T13:23:11;5.82;;;4.00;;
76202;SDS011;64985;46.364;17.008;2023-04-06T13:26:14;6.72;;;3.80;;
76202;SDS011;64985;46.364;17.008;2023-04-06T13:29:18;5.32;;;4.03;;
76202;SDS011;64985;46.364;17.008;2023-04-06T13:32:21;5.45;;;4.10;;
76202;SDS011;64985;46.364;17.008;2023-04-06T13:35:25;10.85;;;4.00;;
76202;SDS011;64985;46.364;17.008;2023-04-06T13:38:29;6.55;;;3.85;;
76202;SDS011;64985;46.364;17.008;2023-04-06T13:41:32;5.07;;;4.03;;
76202;SDS011;64985;46.364;17.008;2023-04-06T13:44:35;8.05;;;4.78;;
76202;SDS011;64985;46.364;17.008;2023-04-06T13:47:39;5.75;;;4.20;;
76202;SDS011;64985;46.364;17.008;2023-04-06T13:50:44;11.25;;;4.30;;
76202;SDS011;64985;46.364;17.008;2023-04-06T13:53:48;8.07;;;4.97;;
76202;SDS011;64985;46.364;17.008;2023-04-06T13:56:54;7.85;;;4.03;;
76202;SDS011;64985;46.364;17.008;2023-04-06T13:59:58;6.40;;;3.88;;
76202;SDS011;64985;46.364;17.008;2023-04-06T14:03:07;10.70;;;5.60;;
76202;SDS011;64985;46.364;17.008;2023-04-06T14:06:13;7.97;;;5.07;;
76202;SDS011;64985;46.364;17.008;2023-04-06T14:09:20;6.30;;;4.00;;
76202;SDS011;64985;46.364;17.008;2023-04-06T14:12:24;6.32;;;4.35;;
76202;SDS011;64985;46.364;17.008;2023-04-06T14:15:27;8.32;;;4.60;;
76202;SDS011;64985;46.364;17.008;2023-04-06T14:18:31;7.90;;;5.20;;
76202;SDS011;64985;46.364;17.008;2023-04-06T14:21:36;7.38;;;5.85;;
76202;SDS011;64985;46.364;17.008;2023-04-06T14:24:42;6.13;;;4.72;;
76202;SDS011;64985;46.364;17.008;2023-04-06T14:27:45;6.57;;;5.07;;
76202;SDS011;64985;46.364;17.008;2023-04-06T14:30:49;7.68;;;4.93;;
76202;SDS011;64985;46.364;17.008;2023-04-06T14:33:52;5.82;;;4.50;;
76202;SDS011;64985;46.364;17.008;2023-04-06T14:36:55;5.93;;;3.92;;
76202;SDS011;64985;46.364;17.008;2023-04-06T14:39:59;6.43;;;4.63;;
76202;SDS011;64985;46.364;17.008;2023-04-06T14:43:03;6.88;;;4.40;;
76202;SDS011;64985;46.364;17.008;2023-04-06T14:46:06;8.98;;;5.10;;
76202;SDS011;64985;46.364;17.008;2023-04-06T14:49:10;10.23;;;5.65;;
76202;SDS011;64985;46.364;17.008;2023-04-06T14:52:15;10.30;;;5.65;;
76202;SDS011;64985;46.364;17.008;2023-04-06T14:55:18;9.00;;;5.00;;
76202;SDS011;64985;46.364;17.008;2023-04-06T14:58:21;9.63;;;4.80;;
76202;SDS011;64985;46.364;17.008;2023-04-06T15:01:25;7.40;;;4.40;;
76202;SDS011;64985;46.364;17.008;2023-04-06T15:04:29;7.35;;;4.30;;
76202;SDS011;64985;46.364;17.008;2023-04-06T15:07:32;7.72;;;5.55;;
76202;SDS011;64985;46.364;17.008;2023-04-06T15:10:35;7.18;;;4.38;;
76202;SDS011;64985;46.364;17.008;2023-04-06T15:13:39;5.88;;;3.58;;
76202;SDS011;64985;46.364;17.008;2023-04-06T15:16:44;10.73;;;4.30;;
76202;SDS011;64985;46.364;17.008;2023-04-06T15:19:47;5.05;;;3.58;;
76202;SDS011;64985;46.364;17.008;2023-04-06T15:22:50;4.70;;;3.75;;
76202;SDS011;64985;46.364;17.008;2023-04-06T15:25:53;7.10;;;5.10;;
76202;SDS011;64985;46.364;17.008;2023-04-06T15:28:56;7.53;;;4.63;;
76202;SDS011;64985;46.364;17.008;2023-04-06T15:32:00;7.60;;;4.53;;
76202;SDS011;64985;46.364;17.008;2023-04-06T15:35:10;6.05;;;3.85;;
76202;SDS011;64985;46.364;17.008;2023-04-06T15:38:13;9.35;;;5.53;;
76202;SDS011;64985;46.364;17.008;2023-04-06T15:41:17;5.80;;;3.97;;
76202;SDS011;64985;46.364;17.008;2023-04-06T15:44:20;8.85;;;4.05;;
76202;SDS011;64985;46.364;17.008;2023-04-06T15:47:23;7.05;;;3.70;;
76202;SDS011;64985;46.364;17.008;2023-04-06T15:50:27;8.15;;;4.60;;
76202;SDS011;64985;46.364;17.008;2023-04-06T15:53:30;9.80;;;4.38;;
76202;SDS011;64985;46.364;17.008;2023-04-06T15:56:34;6.18;;;4.20;;
76202;SDS011;64985;46.364;17.008;2023-04-06T15:59:37;8.98;;;5.80;;
76202;SDS011;64985;46.364;17.008;2023-04-06T16:02:40;12.35;;;6.60;;
76202;SDS011;64985;46.364;17.008;2023-04-06T16:05:44;9.23;;;5.55;;
76202;SDS011;64985;46.364;17.008;2023-04-06T16:09:05;11.13;;;7.03;;
76202;SDS011;64985;46.364;17.008;2023-04-06T16:12:09;9.10;;;5.68;;
76202;SDS011;64985;46.364;17.008;2023-04-06T16:15:12;31.52;;;14.20;;
76202;SDS011;64985;46.364;17.008;2023-04-06T16:18:15;14.55;;;7.40;;
76202;SDS011;64985;46.364;17.008;2023-04-06T16:21:18;10.95;;;6.25;;
76202;SDS011;64985;46.364;17.008;2023-04-06T16:24:21;12.35;;;6.00;;
76202;SDS011;64985;46.364;17.008;2023-04-06T16:27:24;10.57;;;5.60;;
76202;SDS011;64985;46.364;17.008;2023-04-06T16:30:29;7.20;;;5.07;;
76202;SDS011;64985;46.364;17.008;2023-04-06T16:33:32;9.57;;;5.22;;
76202;SDS011;64985;46.364;17.008;2023-04-06T16:36:35;9.15;;;5.07;;
76202;SDS011;64985;46.364;17.008;2023-04-06T16:39:42;8.57;;;5.35;;
76202;SDS011;64985;46.364;17.008;2023-04-06T16:42:44;15.15;;;5.20;;
76202;SDS011;64985;46.364;17.008;2023-04-06T16:45:51;6.38;;;4.35;;
76202;SDS011;64985;46.364;17.008;2023-04-06T16:48:54;7.88;;;4.40;;
76202;SDS011;64985;46.364;17.008;2023-04-06T16:51:57;7.80;;;4.43;;
76202;SDS011;64985;46.364;17.008;2023-04-06T16:55:03;11.00;;;4.57;;
76202;SDS011;64985;46.364;17.008;2023-04-06T16:58:07;10.00;;;5.30;;
76202;SDS011;64985;46.364;17.008;2023-04-06T17:01:24;8.30;;;4.53;;
76202;SDS011;64985;46.364;17.008;2023-04-06T17:04:29;7.05;;;4.30;;
76202;SDS011;64985;46.364;17.008;2023-04-06T17:07:32;8.88;;;5.78;;
76202;SDS011;64985;46.364;17.008;2023-04-06T17:10:37;8.15;;;4.78;;
76202;SDS011;64985;46.364;17.008;2023-04-06T17:13:52;7.28;;;4.80;;
76202;SDS011;64985;46.364;17.008;2023-04-06T17:16:55;11.02;;;5.63;;
76202;SDS011;64985;46.364;17.008;2023-04-06T17:19:59;6.13;;;4.25;;
76202;SDS011;64985;46.364;17.008;2023-04-06T17:23:02;8.55;;;4.68;;
76202;SDS011;64985;46.364;17.008;2023-04-06T17:26:06;8.43;;;4.95;;
76202;SDS011;64985;46.364;17.008;2023-04-06T17:29:09;10.10;;;5.40;;
76202;SDS011;64985;46.364;17.008;2023-04-06T17:32:12;30.55;;;16.10;;
76202;SDS011;64985;46.364;17.008;2023-04-06T17:35:15;23.95;;;12.88;;
76202;SDS011;64985;46.364;17.008;2023-04-06T17:38:18;8.50;;;5.30;;
76202;SDS011;64985;46.364;17.008;2023-04-06T17:41:22;9.10;;;4.38;;
76202;SDS011;64985;46.364;17.008;2023-04-06T17:44:25;6.50;;;3.92;;
76202;SDS011;64985;46.364;17.008;2023-04-06T17:47:28;6.22;;;3.67;;
76202;SDS011;64985;46.364;17.008;2023-04-06T17:50:36;7.57;;;4.43;;
76202;SDS011;64985;46.364;17.008;2023-04-06T17:53:40;6.18;;;3.92;;
76202;SDS011;64985;46.364;17.008;2023-04-06T17:56:43;5.88;;;3.88;;
76202;SDS011;64985;46.364;17.008;2023-04-06T17:59:50;6.03;;;3.55;;
76202;SDS011;64985;46.364;17.008;2023-04-06T18:02:54;8.07;;;3.90;;